Terminal Aerodrome Forecast
Issued by NWS

Home | Current Version | Previous Version | Text Only | Print | Product List | Glossary On
Versions: 1 2 3 4 5 6 7 8 9 10 11 12 13
000
FTUS43 KLSX 032300
TAFUIN
TAF
KUIN 032334Z 0400/0424 20014G22KT P6SM VCSH BKN060
     FM040100 18008KT P6SM SCT120 BKN250
     FM040900 18006KT P6SM VCTS BKN080CB
     FM041400 22014KT P6SM FEW050 SCT120 BKN250
     FM042200 24012KT P6SM VCTS BKN050CB=

USA.gov is the U.S. government's official web portal to all federal, state and local government web resources and services.